• Join FlightAware (Why Join?)
  • Login
  • US Flag 
05:26AM EDT


 

Airport Tracker/Info


-or-


 

Live Flight TrackerFlight Track Log ✈ LXJ609 ✈ 01-May-2013 ✈ KTEB - KCKI

Flight Track Log - Related Links

Times and Time Zones

All times are in EDT time to prevent confusion due to time zone crossing. See the LXJ609 flight status page for this flight to view local times or setup timezone preferences in your user account.

Time Position Orientation Groundspeed Altitude Reporting Facility
EDT Latitude Longitude Course Direction KTS MPH feet Rate Location/Type
05:09PM 40.8333 -74.0833 252° West 171 197 1,100  Level New York TRACON
05:10PM 40.8167 -74.1500 252° West 212 244 1,600 1,500 Climbing New York TRACON
05:11PM 40.7833 -74.2167 237° Southwest 225 259 4,100 2,160 Climbing New York TRACON
05:12PM 40.7167 -74.2500 201° Southwest 258 297 5,900 900 Climbing New York TRACON
05:13PM 40.6333 -74.2500 180° South 282 325 6,000  Climbing New York TRACON
05:14PM 40.5500 -74.2667 189° South 282 325 6,000  Level New York TRACON
05:15PM 40.4833 -74.2500 169° South 273 314 6,000  Level New York TRACON
05:16PM 40.4167 -74.2000 150° Southeast 271 312 6,000 660 Level New York TRACON
05:17PM 40.3683 -74.1217 129° Southeast 268 308 7,500 2,100 Climbing New York Center
05:18PM 40.3106 -74.0969 162° South 239 275 10,600 2,940 Climbing New York Center
05:19PM 40.2175 -74.1414 200° South 262 302 13,500 3,300 Climbing New York Center
05:20PM 40.1267 -74.1886 202° Southwest 340 391 17,100 3,300 Climbing New York Center
05:20PM 40.0867 -74.2058 198° South 395 455 17,900 2,400 Climbing Washington Center
05:22PM 39.9297 -74.3253 210° Southwest 403 464 21,900 1,920 Climbing Washington Center
05:23PM 39.8328 -74.4133 215° Southwest 432 497 23,000 1,260 Climbing Washington Center
05:24PM 39.7483 -74.5256 226° Southwest 438 504 24,500 1,860 Climbing Washington Center
05:25PM 39.6578 -74.6428 225° Southwest 444 511 26,700 2,100 Climbing Washington Center
05:26PM 39.5586 -74.7733 225° Southwest 454 522 28,800 1,860 Climbing Washington Center
05:27PM 39.4636 -74.8981 225° Southwest 466 536 30,500 1,500 Climbing Washington Center
05:28PM 39.3706 -75.0197 225° Southwest 478 550 31,800 1,560 Climbing Washington Center
05:29PM 39.2625 -75.1253 217° Southwest 483 556 33,600 1,800 Climbing Washington Center
05:30PM 39.1336 -75.1822 199° South 483 556 35,500 1,740 Climbing Washington Center
05:31PM 39.0086 -75.2364 199° South 483 556 37,200 1,680 Climbing Washington Center
05:32PM 38.8836 -75.2878 198° South 483 556 38,900 1,440 Climbing Washington Center
05:33PM 38.7628 -75.3414 199° South 472 543 40,200 1,140 Climbing Washington Center
05:34PM 38.6422 -75.3922 198° South 467 537 41,200 1,020 Climbing Washington Center
05:35PM 38.5233 -75.4406 198° South 461 531 42,300 840 Climbing Washington Center
05:36PM 38.4025 -75.4911 198° South 461 531 43,000 300 Climbing Washington Center
05:37PM 38.2919 -75.5336 197° South 461 531 43,000  Level Washington Center
05:38PM 38.1794 -75.6075 207° Southwest 466 536 43,000  Level Washington Center
05:39PM 38.0689 -75.6867 209° Southwest 455 524 43,000  Level Washington Center
05:40PM 37.9519 -75.7761 211° Southwest 450 518 43,000  Level Washington Center
05:41PM 37.8517 -75.8417 207° Southwest 450 518 43,000  Level Washington Center
05:42PM 37.7347 -75.9331 212° Southwest 450 518 43,000  Level Washington Center
05:43PM 37.6261 -76.0086 209° Southwest 450 518 43,000  Level Washington Center
05:44PM 37.5194 -76.0867 210° Southwest 450 518 43,000  Level Washington Center
05:45PM 37.4314 -76.1464 208° Southwest 450 518 43,000  Level Washington Center
05:46PM 37.3081 -76.2289 208° Southwest 455 524 43,000  Level Washington Center
05:47PM 37.1992 -76.3064 210° Southwest 455 524 43,000  Level Washington Center
05:48PM 37.0881 -76.3808 208° Southwest 455 524 43,000  Level Washington Center
05:49PM 36.9811 -76.4578 210° Southwest 460 529 43,000  Level Washington Center
05:50PM 36.8722 -76.5317 208° Southwest 460 529 43,000  Level Washington Center
05:51PM 36.7650 -76.6083 210° Southwest 454 522 43,000  Level Washington Center
05:52PM 36.6475 -76.6947 211° Southwest 449 517 43,000  Level Washington Center
05:53PM 36.5406 -76.7683 209° Southwest 449 517 43,000  Level Washington Center
05:54PM 36.4439 -76.8339 209° Southwest 442 509 43,000  Level Washington Center
05:55PM 36.3261 -76.9119 208° Southwest 442 509 43,000  Level Washington Center
05:56PM 36.2253 -76.9797 208° Southwest 437 503 43,000  Level Washington Center
05:57PM 36.1222 -77.0500 209° Southwest 432 497 43,000  Level Washington Center
05:58PM 36.0272 -77.1306 214° Southwest 426 490 43,000  Level Washington Center
05:59PM 35.9364 -77.2133 216° Southwest 415 478 43,000  Level Washington Center
06:00PM 35.8456 -77.2961 216° Southwest 415 478 43,000  Level Washington Center
06:01PM 35.7525 -77.3811 217° Southwest 415 478 43,000  Level Washington Center
06:02PM 35.6594 -77.4633 216° Southwest 415 478 43,000  Level Washington Center
06:03PM 35.5664 -77.5456 216° Southwest 415 478 43,000  Level Washington Center
06:04PM 35.4922 -77.6100 215° Southwest 415 478 43,000  Level Washington Center
06:05PM 35.3925 -77.7017 217° Southwest 415 478 43,000  Level Washington Center
06:06PM 35.2972 -77.7831 215° Southwest 415 478 43,000  Level Washington Center
06:07PM 35.2017 -77.8669 216° Southwest 415 478 43,000  Level Washington Center
06:08PM 35.1083 -77.9481 215° Southwest 415 478 43,000 -360 Level Washington Center
06:09PM 35.0169 -78.0292 216° Southwest 415 478 42,400 -1,320 Descending Washington Center
06:10PM 34.9256 -78.1100 216° Southwest 415 478 40,400 -1,980 Descending Washington Center
06:11PM 34.8406 -78.1883 217° Southwest 409 471 38,400 -2,280 Descending Washington Center
06:12PM 34.7447 -78.2739 216° Southwest 409 471 36,000 -2,400 Descending Washington Center
06:14PM 34.5403 -78.4439 214° Southwest 446 513 31,200 -2,520 Descending Jacksonville Center
06:15PM 34.4353 -78.5400 217° Southwest 457 526 28,400 -2,880 Descending Jacksonville Center
06:16PM 34.3278 -78.6358 216° Southwest 478 550 25,500 -2,100 Descending Jacksonville Center
06:17PM 34.2247 -78.7314 217° Southwest 478 550 24,200 -1,500 Descending Jacksonville Center
06:18PM 34.1358 -78.8233 221° Southwest 462 532 22,500 -2,460 Descending Jacksonville Center
06:19PM 34.0450 -78.9153 220° Southwest 443 510 19,300 -3,300 Descending Jacksonville Center
06:20PM 33.9558 -79.0019 219° Southwest 430 495 15,900 -3,420 Descending Jacksonville Center
06:21PM 33.8794 -79.0953 225° Southwest 412 474 12,500 -2,580 Descending Jacksonville Center
06:22PM 33.8578 -79.2064 257° West 364 419 10,800 -1,740 Descending Jacksonville Center
06:23PM 33.8375 -79.3022 256° West 329 379 9,100 -1,740 Descending Jacksonville Center
06:24PM 33.8192 -79.3931 256° West 304 350 7,400 -1,860 Descending Jacksonville Center
06:25PM 33.7989 -79.4861 255° West 276 318 5,400 -1,860 Descending Jacksonville Center
06:26PM 33.7803 -79.5744 256° West 276 318 3,700 -1,260 Descending Jacksonville Center
06:27PM 33.7617 -79.6600 255° West 271 312 2,900 -420 Descending Jacksonville Center
06:28PM 33.7467 -79.7256 255° West 243 280 2,900 -240 Level Jacksonville Center
06:29PM 33.7294 -79.7936 253° West 227 261 2,500 -420 Descending Jacksonville Center
06:31PM 33.7167 -79.8500 259° West  Level FlightAware Approximate
06:38PM 33.7172 -79.8570 259° West  Level Estimated
06:39PM 33.7167 -79.8500 259° West  Level FlightAware Approximate
06:40PM 33.7172 -79.8570 259° West  Level Estimated
06:41PM 33.7167 -79.8500 259° West  Level FlightAware Approximate
06:42PM 33.7172 -79.8570 259° West  Level Estimated
06:43PM 33.7167 -79.8500 259° West  Level FlightAware Approximate
06:44PM 33.7172 -79.8570 259° West  Level Estimated
06:45PM 33.7167 -79.8500 259° West  Level FlightAware Approximate
06:46PM 33.7172 -79.8570 259° West  Level Estimated
06:47PM 33.7167 -79.8500 259° West  Level FlightAware Approximate
06:48PM 33.7172 -79.8570 259° West  Level Estimated